Mozu Arrow — C6NI8 — position and weather

sailwx.info

Track history (hours):
 
Tides and Currents Weather Stations Pressure Air Temp Water Temp Dewpoint Dewpoint Depression Visibility Wind Speed Wind Dir Waves Ship Positions

Mozu Arrow

Last reported at 2018-Jun-22 09:00 UTC. Time now 2018-Jun-22 09:25 UTC.
Position N 51°10' E 001°55'.

Length 186 m; draft 11.3 m.

Type: Cargo ship. MMSI: 309372000.

Date/timePositionNaut miles runAvg speedWind from/ knotsBaromVisibWave heightAir tempDewpointWater temp
2018-Jun-22 09:00N 51°10' E 001°55'611.3
2018-Jun-22 08:30N 51°07' E 001°47'612.0
2018-Jun-22 08:00N 51°03' E 001°41'612.5
2018-Jun-22 07:30N 50°58' E 001°34'612.6
2018-Jun-22 07:00N 50°53' E 001°29'612.4
2018-Jun-22 06:30N 50°47' E 001°26'711.6
2018-Jun-22 05:56N 50°41' E 001°21'611.3
2018-Jun-22 05:26N 50°37' E 001°15'511.7
2018-Jun-22 05:00N 50°34' E 001°09'812.2
2018-Jun-22 04:22N 50°29' E 000°59'514.0
2018-Jun-22 04:00N 50°28' E 000°52'714.4
2018-Jun-22 03:30N 50°26' E 000°41'814.5
2018-Jun-22 02:57N 50°24' E 000°28'614.4
2018-Jun-22 02:30N 50°22' E 000°19'1714.1
2018-Jun-22 01:16N 50°18' W 000°08'413.6
2018-Jun-22 01:00N 50°17' W 000°13'713.4
2018-Jun-22 00:30N 50°15' W 000°23'713.1
2018-Jun-22 00:00N 50°13' W 000°33'712.8
2018-Jun-21 23:28N 50°12' W 000°43'612.2
2018-Jun-21 23:00N 50°10' W 000°52'611.6
2018-Jun-21 22:30N 50°09' W 001°01'611.2
2018-Jun-21 22:00N 50°07' W 001°09'611.1
2018-Jun-21 21:30N 50°06' W 001°17'510.6
2018-Jun-21 21:01N 50°04' W 001°25'610.6
2018-Jun-21 20:26N 50°02' W 001°34'510.4
2018-Jun-21 19:57N 50°01' W 001°42'510.5
2018-Jun-21 19:30N 49°59' W 001°49'510.9
2018-Jun-21 19:00N 49°58' W 001°57'1011.8
2018-Jun-21 18:07N 49°56' W 002°13'212.5
2018-Jun-21 17:58N 49°55' W 002°15'613.0
2018-Jun-21 17:29N 49°53' W 002°25'713.3
2018-Jun-21 17:00N 49°52' W 002°35'713.6
2018-Jun-21 16:30N 49°50' W 002°45'713.6
2018-Jun-21 16:00N 49°48' W 002°55'713.7
2018-Jun-21 15:30N 49°44' W 003°04'713.8
2018-Jun-21 14:59N 49°41' W 003°13'813.8
2018-Jun-21 14:26N 49°37' W 003°24'7313.8
2018-Jun-21 09:09N 49°01' W 005°00'213.4
2018-Jun-21 08:58N 48°60' W 005°04'713.4
2018-Jun-21 08:29N 48°56' W 005°12'613.2
2018-Jun-21 08:00N 48°53' W 005°20'713.1
2018-Jun-21 07:30N 48°50' W 005°29'612.9
2018-Jun-21 07:00N 48°46' W 005°36'713.0
2018-Jun-21 06:29N 48°40' W 005°42'812.9
2018-Jun-21 05:53N 48°33' W 005°47'2613.4
2018-Jun-21 03:59N 48°10' W 006°05'1212.7
2018-Jun-21 03:00N 47°59' W 006°14'3212.9
2018-Jun-21 00:33N 47°32' W 006°36'  
2018-Jun-17 08:39N 31°57' W 017°54'312.2
2018-Jun-17 08:26N 31°54' W 017°56'611.9
2018-Jun-17 07:56N 31°49' W 017°58'612.2
2018-Jun-17 07:29N 31°44' W 018°01'1012.2
2018-Jun-17 06:39N 31°35' W 018°06'  
2018-Jun-13 00:00N 11°24' W 027°12'15613.0 080 / 141017.010.8 24.021.024.1
2018-Jun-12 12:00N 08°54' W 027°54'   060 / 131016.010.8 26.021.524.8
Track history (hours):
 
Tides and Currents Weather Stations Pressure Air Temp Water Temp Dewpoint Dewpoint Depression Visibility Wind Speed Wind Dir Waves Ship Positions

Mozu Arrow

Last reported at 2018-Jun-22 09:00 UTC. Time now 2018-Jun-22 09:25 UTC.
Position N 51°10' E 001°55'.

Length 186 m; draft 11.3 m.

Type: Cargo ship. MMSI: 309372000.

Date/timePositionNaut miles runAvg speedWind from/ knotsBaromVisibWave heightAir tempDewpointWater temp
2018-Jun-22 09:00N 51°10' E 001°55'611.3
2018-Jun-22 08:30N 51°07' E 001°47'612.0
2018-Jun-22 08:00N 51°03' E 001°41'612.5
2018-Jun-22 07:30N 50°58' E 001°34'612.6
2018-Jun-22 07:00N 50°53' E 001°29'612.4
2018-Jun-22 06:30N 50°47' E 001°26'711.6
2018-Jun-22 05:56N 50°41' E 001°21'611.3
2018-Jun-22 05:26N 50°37' E 001°15'511.7
2018-Jun-22 05:00N 50°34' E 001°09'812.2
2018-Jun-22 04:22N 50°29' E 000°59'514.0
2018-Jun-22 04:00N 50°28' E 000°52'714.4
2018-Jun-22 03:30N 50°26' E 000°41'814.5
2018-Jun-22 02:57N 50°24' E 000°28'614.4
2018-Jun-22 02:30N 50°22' E 000°19'1714.1
2018-Jun-22 01:16N 50°18' W 000°08'413.6
2018-Jun-22 01:00N 50°17' W 000°13'713.4
2018-Jun-22 00:30N 50°15' W 000°23'713.1
2018-Jun-22 00:00N 50°13' W 000°33'712.8
2018-Jun-21 23:28N 50°12' W 000°43'612.2
2018-Jun-21 23:00N 50°10' W 000°52'611.6
2018-Jun-21 22:30N 50°09' W 001°01'611.2
2018-Jun-21 22:00N 50°07' W 001°09'611.1
2018-Jun-21 21:30N 50°06' W 001°17'510.6
2018-Jun-21 21:01N 50°04' W 001°25'610.6
2018-Jun-21 20:26N 50°02' W 001°34'510.4
2018-Jun-21 19:57N 50°01' W 001°42'510.5
2018-Jun-21 19:30N 49°59' W 001°49'510.9
2018-Jun-21 19:00N 49°58' W 001°57'1011.8
2018-Jun-21 18:07N 49°56' W 002°13'212.5
2018-Jun-21 17:58N 49°55' W 002°15'613.0
2018-Jun-21 17:29N 49°53' W 002°25'713.3
2018-Jun-21 17:00N 49°52' W 002°35'713.6
2018-Jun-21 16:30N 49°50' W 002°45'713.6
2018-Jun-21 16:00N 49°48' W 002°55'713.7
2018-Jun-21 15:30N 49°44' W 003°04'713.8
2018-Jun-21 14:59N 49°41' W 003°13'813.8
2018-Jun-21 14:26N 49°37' W 003°24'7313.8
2018-Jun-21 09:09N 49°01' W 005°00'213.4
2018-Jun-21 08:58N 48°60' W 005°04'713.4
2018-Jun-21 08:29N 48°56' W 005°12'613.2
2018-Jun-21 08:00N 48°53' W 005°20'713.1
2018-Jun-21 07:30N 48°50' W 005°29'612.9
2018-Jun-21 07:00N 48°46' W 005°36'713.0
2018-Jun-21 06:29N 48°40' W 005°42'812.9
2018-Jun-21 05:53N 48°33' W 005°47'2613.4
2018-Jun-21 03:59N 48°10' W 006°05'1212.7
2018-Jun-21 03:00N 47°59' W 006°14'3212.9
2018-Jun-21 00:33N 47°32' W 006°36'  
2018-Jun-17 08:39N 31°57' W 017°54'312.2
2018-Jun-17 08:26N 31°54' W 017°56'611.9
2018-Jun-17 07:56N 31°49' W 017°58'612.2
2018-Jun-17 07:29N 31°44' W 018°01'1012.2
2018-Jun-17 06:39N 31°35' W 018°06'  
2018-Jun-13 00:00N 11°24' W 027°12'15613.0 080 / 141017.010.8 24.021.024.1
2018-Jun-12 12:00N 08°54' W 027°54'   060 / 131016.010.8 26.021.524.8

Dump ship's entire track history